Time;durP1;ratioP1;P1;durP2;ratioP2;P2;SDS_P1;SDS_P2;PMS_P1;PMS_P2;Temp;Humidity;BMP_temperature;BMP_pressure;BME280_temperature;BME280_humidity;BME280_pressure;Samples;Min_cycle;Max_cycle;Signal;HPM_P1;HPM_P2
2023/08/16 00:02:07;;;;;;;12.63;11.30;;;;;;;;;;5098984;28;20028;-73
2023/08/16 00:04:33;;;;;;;11.63;10.55;;;;;;;;;;5098497;27;20035;-72
2023/08/16 00:06:59;;;;;;;13.15;11.00;;;;;;;;;;5096942;28;20035;-73
2023/08/16 00:09:24;;;;;;;12.77;11.18;;;;;;;;;;5098159;28;20036;-73
2023/08/16 00:11:50;;;;;;;12.65;11.40;;;;;;;;;;5099352;28;20054;-73
2023/08/16 00:14:15;;;;;;;12.60;10.98;;;;;;;;;;5095649;28;20071;-73
2023/08/16 00:16:41;;;;;;;11.73;10.52;;;;;;;;;;5100743;28;20043;-73
2023/08/16 00:19:07;;;;;;;13.00;11.57;;;;;;;;;;5098966;27;20562;-73
2023/08/16 00:21:32;;;;;;;12.55;10.90;;;;;;;;;;5099185;28;20057;-73
2023/08/16 00:23:58;;;;;;;12.20;11.15;;;;;;;;;;5100550;27;20490;-73
2023/08/16 00:26:23;;;;;;;12.55;11.35;;;;;;;;;;5098760;28;20107;-73
2023/08/16 00:28:49;;;;;;;11.88;10.80;;;;;;;;;;5093791;28;20032;-73
2023/08/16 00:31:15;;;;;;;12.55;11.38;;;;;;;;;;5095356;28;20039;-73
2023/08/16 00:33:41;;;;;;;15.20;11.73;;;;;;;;;;5095764;28;20520;-73
2023/08/16 00:36:07;;;;;;;12.27;11.13;;;;;;;;;;5089833;28;20040;-73
2023/08/16 00:38:34;;;;;;;11.80;10.57;;;;;;;;;;5094618;28;20036;-73
2023/08/16 00:40:59;;;;;;;11.43;10.18;;;;;;;;;;5094098;28;20031;-73
2023/08/16 00:43:25;;;;;;;11.85;10.73;;;;;;;;;;5093106;28;20036;-73
2023/08/16 00:45:51;;;;;;;10.90;10.00;;;;;;;;;;5087310;28;20342;-73
2023/08/16 00:48:18;;;;;;;12.40;10.55;;;;;;;;;;5091470;28;20039;-73
2023/08/16 00:50:45;;;;;;;11.30;10.38;;;;;;;;;;5099201;28;20031;-73
2023/08/16 00:53:12;;;;;;;11.65;10.50;;;;;;;;;;5093033;28;20104;-73
2023/08/16 00:55:38;;;;;;;17.02;12.27;;;;;;;;;;5096890;28;20047;-73
2023/08/16 00:58:04;;;;;;;14.32;12.90;;;;;;;;;;5097399;28;20074;-73
2023/08/16 01:00:30;;;;;;;14.30;12.35;;;;;;;;;;5093423;28;20126;-72
2023/08/16 01:02:56;;;;;;;13.43;11.98;;;;;;;;;;5098703;28;20027;-73
2023/08/16 01:05:22;;;;;;;13.25;12.15;;;;;;;;;;5120119;28;20140;-73
2023/08/16 01:07:49;;;;;;;12.93;11.60;;;;;;;;;;5097771;28;20135;-72
2023/08/16 01:10:15;;;;;;;12.75;11.70;;;;;;;;;;5092343;28;20040;-73
2023/08/16 01:12:49;;;;;;;15.25;11.70;;;;;;;;;;5106144;28;20383;-73
2023/08/16 01:15:30;;;;;;;13.13;11.82;;;;;;;;;;5103183;28;20062;-73
2023/08/16 01:17:58;;;;;;;12.85;11.75;;;;;;;;;;5100697;28;20028;-73
2023/08/16 01:20:25;;;;;;;14.70;11.60;;;;;;;;;;5089668;28;20031;-73
2023/08/16 01:23:17;;;;;;;12.57;11.48;;;;;;;;;;5104266;28;20081;-73
2023/08/16 01:26:07;;;;;;;15.38;12.82;;;;;;;;;;5088676;28;20043;-73
2023/08/16 01:28:35;;;;;;;14.45;13.00;;;;;;;;;;5097399;28;20043;-73
2023/08/16 01:31:04;;;;;;;15.18;13.68;;;;;;;;;;5090800;28;20035;-73
2023/08/16 01:33:30;;;;;;;15.63;13.57;;;;;;;;;;5094937;28;20059;-73
2023/08/16 01:35:56;;;;;;;15.05;13.25;;;;;;;;;;5103732;28;20503;-73
2023/08/16 01:38:22;;;;;;;14.73;13.32;;;;;;;;;;5098102;28;20039;-73
2023/08/16 01:40:56;;;;;;;14.93;13.52;;;;;;;;;;5095849;28;20114;-73
2023/08/16 01:43:22;;;;;;;14.48;13.00;;;;;;;;;;5091382;28;20073;-73
2023/08/16 01:45:50;;;;;;;14.68;13.38;;;;;;;;;;5107955;28;20043;-73
2023/08/16 01:48:16;;;;;;;15.10;13.70;;;;;;;;;;5112763;27;20031;-73
2023/08/16 01:50:43;;;;;;;15.07;13.57;;;;;;;;;;5095905;28;20031;-73
2023/08/16 01:53:08;;;;;;;14.98;13.68;;;;;;;;;;5105823;28;20129;-73
2023/08/16 01:55:34;;;;;;;16.17;14.68;;;;;;;;;;5108128;28;20039;-73
2023/08/16 01:58:00;;;;;;;18.63;14.40;;;;;;;;;;5097419;28;20050;-73
2023/08/16 02:00:26;;;;;;;14.93;13.43;;;;;;;;;;5094233;28;20052;-74
2023/08/16 02:02:52;;;;;;;14.93;13.60;;;;;;;;;;5106939;28;20027;-73
2023/08/16 02:05:18;;;;;;;15.73;14.02;;;;;;;;;;5075531;28;20039;-73
2023/08/16 02:07:44;;;;;;;15.55;14.10;;;;;;;;;;5083319;28;20031;-73
2023/08/16 02:10:09;;;;;;;15.80;13.82;;;;;;;;;;5081633;28;20042;-73
2023/08/16 02:12:35;;;;;;;15.73;14.20;;;;;;;;;;5088528;28;20031;-73
2023/08/16 02:15:02;;;;;;;15.13;13.50;;;;;;;;;;5086780;28;20410;-73
2023/08/16 02:17:28;;;;;;;16.23;14.73;;;;;;;;;;5087191;28;20049;-73
2023/08/16 02:19:54;;;;;;;20.05;15.32;;;;;;;;;;5106683;28;20028;-73
2023/08/16 02:22:20;;;;;;;18.30;15.32;;;;;;;;;;5087723;28;20040;-73
2023/08/16 02:24:46;;;;;;;20.67;16.45;;;;;;;;;;5082533;28;20055;-73
2023/08/16 02:27:11;;;;;;;16.88;15.05;;;;;;;;;;5085451;28;20430;-73
2023/08/16 02:29:37;;;;;;;17.35;15.57;;;;;;;;;;5088782;28;20357;-73
2023/08/16 02:32:03;;;;;;;19.60;15.65;;;;;;;;;;5083570;28;20756;-73
2023/08/16 02:34:29;;;;;;;20.23;13.70;;;;;;;;;;5098680;28;20574;-73
2023/08/16 02:36:54;;;;;;;15.35;13.77;;;;;;;;;;5102915;28;20111;-73
2023/08/16 02:39:22;;;;;;;14.27;12.88;;;;;;;;;;5104752;28;20031;-73
2023/08/16 02:41:48;;;;;;;14.90;13.27;;;;;;;;;;5076992;27;20088;-73
2023/08/16 02:44:13;;;;;;;16.60;12.35;;;;;;;;;;5105667;27;20027;-73
2023/08/16 02:46:39;;;;;;;17.50;13.43;;;;;;;;;;5081983;28;20657;-73
2023/08/16 02:49:04;;;;;;;15.40;13.75;;;;;;;;;;5084221;28;20567;-73
2023/08/16 02:51:30;;;;;;;15.30;13.50;;;;;;;;;;5081063;28;20516;-73
2023/08/16 02:53:55;;;;;;;16.13;12.68;;;;;;;;;;5085310;28;20027;-73
2023/08/16 02:56:21;;;;;;;15.88;13.63;;;;;;;;;;5082965;28;20050;-73
2023/08/16 02:58:46;;;;;;;14.95;13.57;;;;;;;;;;5101970;28;20590;-73
2023/08/16 03:01:12;;;;;;;14.65;13.30;;;;;;;;;;5088116;28;20149;-73
2023/08/16 03:03:40;;;;;;;15.13;12.88;;;;;;;;;;5086689;28;20534;-73
2023/08/16 03:06:06;;;;;;;15.88;13.65;;;;;;;;;;5085574;28;20044;-73
2023/08/16 03:08:31;;;;;;;15.57;13.25;;;;;;;;;;5100635;27;20035;-73
2023/08/16 03:10:57;;;;;;;14.85;13.50;;;;;;;;;;5104322;27;20067;-73
2023/08/16 03:13:22;;;;;;;15.02;13.57;;;;;;;;;;5104458;28;20038;-73
2023/08/16 03:15:48;;;;;;;14.38;13.02;;;;;;;;;;5100736;28;20042;-73
2023/08/16 03:18:14;;;;;;;15.40;13.88;;;;;;;;;;5100786;28;20093;-73
2023/08/16 03:20:40;;;;;;;15.77;14.13;;;;;;;;;;5104116;28;20035;-73
2023/08/16 03:23:07;;;;;;;17.05;15.25;;;;;;;;;;5086492;28;20031;-73
2023/08/16 03:25:32;;;;;;;16.83;14.68;;;;;;;;;;5092090;28;20380;-73
2023/08/16 03:27:58;;;;;;;17.60;14.35;;;;;;;;;;5090289;27;20089;-73
2023/08/16 03:30:24;;;;;;;15.85;14.15;;;;;;;;;;5104939;27;20032;-73
2023/08/16 03:32:51;;;;;;;15.27;13.85;;;;;;;;;;5101486;28;20076;-73
2023/08/16 03:35:18;;;;;;;15.45;13.95;;;;;;;;;;5084056;28;20059;-73
2023/08/16 03:37:44;;;;;;;16.08;14.20;;;;;;;;;;5085474;28;20066;-73
2023/08/16 03:40:10;;;;;;;16.17;14.50;;;;;;;;;;5081425;28;20487;-73
2023/08/16 03:42:37;;;;;;;16.15;14.15;;;;;;;;;;5081546;28;20064;-73
2023/08/16 03:45:03;;;;;;;17.75;15.10;;;;;;;;;;5079933;28;20072;-73
2023/08/16 03:47:29;;;;;;;18.67;16.25;;;;;;;;;;5088061;28;20039;-73
2023/08/16 03:49:56;;;;;;;18.25;16.35;;;;;;;;;;5082898;28;20040;-73
2023/08/16 03:52:21;;;;;;;23.40;16.85;;;;;;;;;;5101989;28;20044;-73
2023/08/16 03:54:50;;;;;;;19.48;17.50;;;;;;;;;;5076458;28;20479;-73
2023/08/16 03:57:15;;;;;;;21.65;18.08;;;;;;;;;;5099043;28;20031;-73
2023/08/16 03:59:42;;;;;;;21.92;17.27;;;;;;;;;;5100634;28;20077;-73
2023/08/16 04:02:07;;;;;;;20.58;17.35;;;;;;;;;;5081922;28;20039;-73
2023/08/16 04:04:35;;;;;;;20.83;18.63;;;;;;;;;;5081806;28;20094;-73
2023/08/16 04:07:00;;;;;;;19.90;17.30;;;;;;;;;;5097429;28;20043;-73
2023/08/16 04:09:26;;;;;;;20.25;18.00;;;;;;;;;;5080920;28;20035;-72
2023/08/16 04:11:52;;;;;;;25.38;18.48;;;;;;;;;;5086856;28;20030;-72
2023/08/16 04:14:18;;;;;;;21.05;18.23;;;;;;;;;;5082090;28;20529;-72
2023/08/16 04:16:43;;;;;;;21.02;17.55;;;;;;;;;;5079577;28;20705;-72
2023/08/16 04:19:09;;;;;;;18.98;16.45;;;;;;;;;;5107653;27;20482;-72
2023/08/16 04:21:38;;;;;;;17.75;15.93;;;;;;;;;;5084082;28;20042;-72
2023/08/16 04:24:04;;;;;;;23.08;17.42;;;;;;;;;;5102957;27;20019;-72
2023/08/16 04:26:30;;;;;;;19.85;17.30;;;;;;;;;;5104437;28;20043;-72
2023/08/16 04:28:55;;;;;;;20.38;18.35;;;;;;;;;;5100015;28;20026;-72
2023/08/16 04:31:21;;;;;;;21.83;18.25;;;;;;;;;;5113338;27;20035;-72
2023/08/16 04:33:46;;;;;;;19.98;17.88;;;;;;;;;;5092515;28;20043;-72
2023/08/16 04:36:13;;;;;;;22.00;18.85;;;;;;;;;;5088583;28;20511;-72
2023/08/16 04:38:40;;;;;;;19.95;17.88;;;;;;;;;;5087723;28;20105;-72
2023/08/16 04:41:07;;;;;;;19.33;17.40;;;;;;;;;;5078062;28;20031;-72
2023/08/16 04:43:34;;;;;;;20.02;17.95;;;;;;;;;;5076664;28;20047;-72
2023/08/16 04:46:00;;;;;;;24.25;17.40;;;;;;;;;;5079851;28;20035;-72
2023/08/16 04:48:26;;;;;;;20.15;17.80;;;;;;;;;;5081675;28;20127;-71
2023/08/16 04:50:52;;;;;;;19.42;16.10;;;;;;;;;;5082136;28;20035;-71
2023/08/16 04:53:17;;;;;;;17.38;15.75;;;;;;;;;;5075435;28;20047;-71
2023/08/16 04:55:43;;;;;;;20.48;16.25;;;;;;;;;;5085818;28;20028;-71
2023/08/16 04:58:09;;;;;;;17.58;15.77;;;;;;;;;;5075036;28;20094;-71
2023/08/16 05:00:39;;;;;;;17.38;15.77;;;;;;;;;;5086874;28;20036;-72
2023/08/16 05:03:05;;;;;;;17.05;15.35;;;;;;;;;;5083537;28;20032;-71
2023/08/16 05:05:33;;;;;;;16.52;14.93;;;;;;;;;;5082392;28;20059;-72
2023/08/16 05:07:59;;;;;;;16.17;14.10;;;;;;;;;;5081508;28;20067;-71
2023/08/16 05:10:24;;;;;;;16.88;15.38;;;;;;;;;;5069588;28;20059;-72
2023/08/16 05:12:50;;;;;;;15.77;14.38;;;;;;;;;;5078851;28;20111;-71
2023/08/16 05:15:16;;;;;;;18.67;13.75;;;;;;;;;;5083368;28;20048;-72
2023/08/16 05:17:42;;;;;;;14.25;13.07;;;;;;;;;;5078280;28;20028;-72
2023/08/16 05:20:10;;;;;;;15.23;13.70;;;;;;;;;;5086224;28;20106;-71
2023/08/16 05:22:35;;;;;;;14.27;12.90;;;;;;;;;;5100611;28;20040;-73
2023/08/16 05:25:01;;;;;;;14.15;12.88;;;;;;;;;;5078888;28;20386;-72
2023/08/16 05:27:28;;;;;;;13.68;12.15;;;;;;;;;;5098464;28;20062;-72
2023/08/16 05:29:54;;;;;;;13.70;12.45;;;;;;;;;;5101967;28;20453;-71
2023/08/16 05:32:20;;;;;;;13.10;12.00;;;;;;;;;;5103340;28;20046;-71
2023/08/16 05:34:45;;;;;;;12.70;11.57;;;;;;;;;;5097636;28;20133;-71
2023/08/16 05:37:11;;;;;;;12.80;11.70;;;;;;;;;;5102363;28;20432;-72
2023/08/16 05:39:37;;;;;;;12.95;11.93;;;;;;;;;;5100012;28;21090;-72
2023/08/16 05:42:03;;;;;;;13.52;12.35;;;;;;;;;;5083772;28;20077;-71
2023/08/16 05:44:29;;;;;;;13.68;12.48;;;;;;;;;;5093216;28;20036;-71
2023/08/16 05:46:54;;;;;;;13.27;12.18;;;;;;;;;;5103831;28;20028;-71
2023/08/16 05:49:20;;;;;;;12.68;11.68;;;;;;;;;;5104713;28;20027;-71
2023/08/16 05:51:45;;;;;;;12.48;11.57;;;;;;;;;;5103319;28;20031;-72
2023/08/16 05:54:11;;;;;;;14.20;12.88;;;;;;;;;;5105208;28;20042;-71
2023/08/16 05:56:37;;;;;;;14.73;13.45;;;;;;;;;;5108932;28;20038;-71
2023/08/16 05:59:03;;;;;;;12.73;11.82;;;;;;;;;;5088740;28;20039;-71
2023/08/16 06:01:29;;;;;;;15.10;13.48;;;;;;;;;;5105538;28;20716;-72
2023/08/16 06:03:54;;;;;;;14.05;12.95;;;;;;;;;;5106385;28;20039;-71
2023/08/16 06:06:20;;;;;;;14.10;12.95;;;;;;;;;;5108195;28;20118;-72
2023/08/16 06:08:45;;;;;;;15.68;13.90;;;;;;;;;;5107686;28;20097;-72
2023/08/16 06:11:11;;;;;;;14.68;13.25;;;;;;;;;;5106641;28;20038;-72
2023/08/16 06:13:37;;;;;;;15.07;13.75;;;;;;;;;;5103674;28;20032;-72
2023/08/16 06:16:03;;;;;;;14.45;13.13;;;;;;;;;;5108131;28;20038;-72
2023/08/16 06:18:29;;;;;;;14.55;13.25;;;;;;;;;;5107887;28;20106;-72
2023/08/16 06:20:54;;;;;;;14.20;12.82;;;;;;;;;;5104194;28;20130;-72
2023/08/16 06:23:20;;;;;;;14.18;12.77;;;;;;;;;;5107444;28;20051;-73
2023/08/16 06:25:46;;;;;;;13.60;12.50;;;;;;;;;;5104527;28;20067;-73
2023/08/16 06:28:12;;;;;;;13.43;12.10;;;;;;;;;;5105383;28;20445;-73
2023/08/16 06:30:37;;;;;;;12.25;11.15;;;;;;;;;;5105780;28;20036;-73
2023/08/16 06:33:03;;;;;;;12.70;11.45;;;;;;;;;;5107899;28;20039;-73
2023/08/16 06:35:29;;;;;;;12.55;11.30;;;;;;;;;;5107795;28;20038;-73
2023/08/16 06:37:57;;;;;;;12.05;11.05;;;;;;;;;;5105241;28;20084;-73
2023/08/16 06:40:23;;;;;;;12.23;11.23;;;;;;;;;;5107254;28;20467;-73
2023/08/16 06:42:48;;;;;;;11.85;10.70;;;;;;;;;;5107378;28;20538;-73
2023/08/16 06:45:14;;;;;;;11.98;10.77;;;;;;;;;;5101977;28;20039;-73
2023/08/16 06:47:39;;;;;;;12.32;11.13;;;;;;;;;;5107606;28;20055;-73
2023/08/16 06:50:05;;;;;;;11.00;10.13;;;;;;;;;;5107043;28;20119;-73
2023/08/16 06:52:31;;;;;;;11.75;10.73;;;;;;;;;;5100619;28;20415;-73
2023/08/16 06:54:57;;;;;;;11.98;10.93;;;;;;;;;;5105572;28;20031;-72
2023/08/16 06:57:22;;;;;;;11.25;10.27;;;;;;;;;;5106353;28;20054;-73
2023/08/16 06:59:48;;;;;;;11.27;10.20;;;;;;;;;;5106883;28;20033;-73
2023/08/16 07:02:14;;;;;;;10.35;9.45;;;;;;;;;;5102881;28;20032;-73
2023/08/16 07:04:43;;;;;;;10.27;9.48;;;;;;;;;;5103577;28;20110;-73
2023/08/16 07:07:10;;;;;;;10.20;9.45;;;;;;;;;;5102933;28;20047;-72
2023/08/16 07:09:35;;;;;;;10.55;9.65;;;;;;;;;;5106499;28;20027;-72
2023/08/16 07:12:01;;;;;;;11.00;9.90;;;;;;;;;;5101055;28;20107;-72
2023/08/16 07:14:27;;;;;;;10.77;9.98;;;;;;;;;;5106846;28;20082;-73
2023/08/16 07:16:52;;;;;;;11.32;9.77;;;;;;;;;;5106924;28;20110;-73
2023/08/16 07:19:18;;;;;;;10.52;9.63;;;;;;;;;;5097446;28;20056;-72
2023/08/16 07:21:43;;;;;;;10.82;10.02;;;;;;;;;;5106029;28;20039;-72
2023/08/16 07:24:09;;;;;;;10.52;9.60;;;;;;;;;;5106239;28;20130;-73
2023/08/16 07:26:35;;;;;;;10.45;9.65;;;;;;;;;;5106768;28;20043;-73
2023/08/16 07:29:00;;;;;;;10.80;9.80;;;;;;;;;;5105302;28;20037;-73
2023/08/16 07:31:26;;;;;;;10.93;8.93;;;;;;;;;;5105629;28;20479;-73
2023/08/16 07:33:51;;;;;;;9.90;9.18;;;;;;;;;;5106175;28;20534;-73
2023/08/16 07:36:17;;;;;;;10.30;9.40;;;;;;;;;;5106668;28;20482;-73
2023/08/16 07:38:43;;;;;;;11.38;10.15;;;;;;;;;;5104247;28;20097;-73
2023/08/16 07:41:08;;;;;;;10.70;9.80;;;;;;;;;;5099159;28;20098;-73
2023/08/16 07:43:34;;;;;;;10.98;9.98;;;;;;;;;;5106384;28;20031;-73
2023/08/16 07:46:00;;;;;;;11.95;10.05;;;;;;;;;;5104494;28;20039;-73
2023/08/16 07:48:25;;;;;;;11.60;10.57;;;;;;;;;;5101978;28;20073;-73
2023/08/16 07:50:51;;;;;;;11.40;10.23;;;;;;;;;;5106193;28;20028;-73
2023/08/16 07:53:17;;;;;;;11.23;10.18;;;;;;;;;;5105902;28;20034;-73
2023/08/16 07:55:43;;;;;;;11.10;10.18;;;;;;;;;;5103821;28;20035;-72
2023/08/16 07:58:08;;;;;;;11.18;9.52;;;;;;;;;;5104939;28;20039;-73
2023/08/16 08:00:34;;;;;;;10.30;9.35;;;;;;;;;;5105978;28;20031;-73
2023/08/16 08:03:00;;;;;;;10.65;9.77;;;;;;;;;;5104446;28;20027;-73
2023/08/16 08:05:25;;;;;;;10.30;9.32;;;;;;;;;;5100535;28;20027;-73
2023/08/16 08:07:55;;;;;;;11.30;8.82;;;;;;;;;;5100149;28;20059;-73
2023/08/16 08:10:20;;;;;;;15.18;9.93;;;;;;;;;;5105133;28;20035;-73
2023/08/16 08:12:46;;;;;;;10.38;9.20;;;;;;;;;;5103358;28;20043;-72
2023/08/16 08:15:12;;;;;;;9.70;8.90;;;;;;;;;;5102116;28;20222;-73
2023/08/16 08:17:37;;;;;;;10.48;9.55;;;;;;;;;;5104509;28;20074;-73
2023/08/16 08:20:04;;;;;;;10.65;9.55;;;;;;;;;;5104210;28;20036;-73
2023/08/16 08:22:30;;;;;;;11.10;10.07;;;;;;;;;;5101905;28;20675;-73
2023/08/16 08:24:56;;;;;;;10.50;9.55;;;;;;;;;;5101487;28;20494;-73
2023/08/16 08:27:21;;;;;;;11.38;9.65;;;;;;;;;;5104507;28;20486;-73
2023/08/16 08:29:47;;;;;;;11.02;8.85;;;;;;;;;;5104038;28;20090;-73
2023/08/16 08:32:13;;;;;;;9.50;8.80;;;;;;;;;;5102434;28;20057;-73
2023/08/16 08:34:39;;;;;;;9.63;8.52;;;;;;;;;;5104143;28;20422;-73
2023/08/16 08:37:04;;;;;;;10.10;8.95;;;;;;;;;;5104098;28;20048;-73
2023/08/16 08:39:32;;;;;;;9.60;8.80;;;;;;;;;;5104180;28;20146;-73
2023/08/16 08:41:58;;;;;;;9.05;8.25;;;;;;;;;;5102527;28;20456;-73
2023/08/16 08:44:24;;;;;;;10.75;8.52;;;;;;;;;;5103780;28;20715;-73
2023/08/16 08:46:51;;;;;;;10.68;9.20;;;;;;;;;;5104802;28;20394;-73
2023/08/16 08:49:19;;;;;;;9.73;8.32;;;;;;;;;;5104019;28;20467;-74
2023/08/16 08:51:45;;;;;;;8.80;7.90;;;;;;;;;;5084238;28;20047;-73
2023/08/16 08:54:11;;;;;;;9.00;8.20;;;;;;;;;;5104918;28;20035;-73
2023/08/16 08:56:37;;;;;;;11.07;8.10;;;;;;;;;;5104686;28;20031;-72
2023/08/16 08:59:03;;;;;;;9.25;8.40;;;;;;;;;;5101730;28;20759;-72
2023/08/16 09:01:31;;;;;;;9.10;8.18;;;;;;;;;;5099470;28;20054;-72
2023/08/16 09:04:00;;;;;;;8.98;8.20;;;;;;;;;;5080504;28;20024;-72
2023/08/16 09:06:25;;;;;;;8.80;7.97;;;;;;;;;;5101196;28;20062;-72
2023/08/16 09:08:52;;;;;;;8.63;7.93;;;;;;;;;;5081604;28;20051;-72
2023/08/16 09:11:19;;;;;;;9.00;8.10;;;;;;;;;;5103022;28;20652;-72
2023/08/16 09:13:45;;;;;;;9.20;7.78;;;;;;;;;;5104105;28;20042;-73
2023/08/16 09:16:11;;;;;;;8.93;7.70;;;;;;;;;;5084640;28;20036;-72
2023/08/16 09:18:36;;;;;;;8.80;8.00;;;;;;;;;;5085739;28;20040;-72
2023/08/16 09:21:02;;;;;;;8.18;7.40;;;;;;;;;;5099881;28;20042;-72
2023/08/16 09:23:28;;;;;;;8.55;7.80;;;;;;;;;;5103374;28;20027;-72
2023/08/16 09:25:53;;;;;;;9.02;8.15;;;;;;;;;;5104428;28;20055;-72
2023/08/16 09:28:20;;;;;;;9.15;8.40;;;;;;;;;;5102753;28;20072;-72
2023/08/16 09:30:46;;;;;;;9.50;8.40;;;;;;;;;;5104702;28;20583;-72
2023/08/16 09:33:17;;;;;;;8.85;7.93;;;;;;;;;;5107150;28;20020;-72
2023/08/16 09:35:51;;;;;;;9.15;8.27;;;;;;;;;;5108567;28;20757;-72
2023/08/16 09:38:20;;;;;;;9.68;8.77;;;;;;;;;;5104395;28;20047;-72
2023/08/16 09:40:50;;;;;;;11.32;8.65;;;;;;;;;;5104727;28;20551;-72
2023/08/16 09:43:16;;;;;;;9.63;8.48;;;;;;;;;;5108324;28;20042;-72
2023/08/16 09:45:42;;;;;;;9.10;8.40;;;;;;;;;;5099588;28;20036;-72
2023/08/16 09:48:08;;;;;;;8.82;8.02;;;;;;;;;;5089270;28;20053;-72
2023/08/16 09:50:35;;;;;;;10.15;7.80;;;;;;;;;;5108707;28;20047;-72
2023/08/16 09:53:05;;;;;;;8.98;8.13;;;;;;;;;;5105728;28;20036;-72
2023/08/16 09:55:32;;;;;;;8.30;7.60;;;;;;;;;;5106361;28;20043;-72
2023/08/16 09:57:59;;;;;;;8.43;7.38;;;;;;;;;;5108202;28;20063;-72
2023/08/16 10:00:29;;;;;;;9.77;7.30;;;;;;;;;;5087874;28;20028;-72
2023/08/16 10:02:56;;;;;;;8.82;8.02;;;;;;;;;;5108407;28;20449;-72
2023/08/16 10:05:24;;;;;;;9.80;8.10;;;;;;;;;;5102329;28;20031;-72
2023/08/16 10:07:50;;;;;;;8.55;7.85;;;;;;;;;;5108446;28;20509;-72
2023/08/16 10:10:16;;;;;;;10.13;7.55;;;;;;;;;;5108117;28;20031;-72
2023/08/16 10:12:43;;;;;;;8.77;7.97;;;;;;;;;;5107396;28;20510;-72
2023/08/16 10:15:09;;;;;;;11.75;7.63;;;;;;;;;;5103759;28;20028;-72
2023/08/16 10:17:38;;;;;;;9.55;8.65;;;;;;;;;;5103524;28;20063;-72
2023/08/16 10:20:07;;;;;;;;;;;;;;;;;;5107968;28;20101;-72
2023/08/16 10:22:43;;;;;;;9.68;7.50;;;;;;;;;;5101818;28;20328;-72
2023/08/16 10:25:17;;;;;;;8.23;7.25;;;;;;;;;;5103946;28;20034;-72
2023/08/16 10:27:44;;;;;;;8.73;7.50;;;;;;;;;;5107955;28;20063;-72
2023/08/16 10:30:21;;;;;;;12.00;7.72;;;;;;;;;;5106531;28;20031;-72
2023/08/16 10:32:59;;;;;;;10.98;7.70;;;;;;;;;;5100766;28;20031;-72
2023/08/16 10:35:25;;;;;;;8.45;7.20;;;;;;;;;;5108215;28;20397;-73
2023/08/16 10:37:53;;;;;;;8.82;7.28;;;;;;;;;;5108313;28;20531;-72
2023/08/16 10:40:22;;;;;;;8.65;7.72;;;;;;;;;;5105033;28;20398;-72
2023/08/16 10:42:54;;;;;;;7.97;7.28;;;;;;;;;;5107846;28;20112;-72
2023/08/16 10:45:28;;;;;;;8.50;7.70;;;;;;;;;;5107896;28;20039;-72
2023/08/16 10:47:54;;;;;;;7.82;7.13;;;;;;;;;;5106867;28;20031;-72
2023/08/16 10:50:33;;;;;;;10.93;8.35;;;;;;;;;;5103440;28;20041;-72
2023/08/16 10:53:00;;;;;;;9.63;7.57;;;;;;;;;;5107634;28;20046;-72
2023/08/16 10:55:26;;;;;;;9.15;8.30;;;;;;;;;;5107735;28;20046;-72
2023/08/16 10:57:54;;;;;;;9.10;8.10;;;;;;;;;;5101307;28;20084;-72
2023/08/16 11:00:27;;;;;;;9.93;7.70;;;;;;;;;;5105437;28;20037;-72
2023/08/16 11:02:54;;;;;;;8.40;7.60;;;;;;;;;;5107490;28;20535;-72
2023/08/16 11:05:21;;;;;;;10.02;7.57;;;;;;;;;;5101892;28;20573;-72
2023/08/16 11:07:47;;;;;;;8.40;7.63;;;;;;;;;;5103995;28;20031;-73
2023/08/16 11:10:13;;;;;;;7.82;7.10;;;;;;;;;;5106867;28;20536;-72
2023/08/16 11:12:39;;;;;;;8.32;7.30;;;;;;;;;;5107269;28;20024;-72
2023/08/16 11:15:05;;;;;;;7.63;6.88;;;;;;;;;;5106125;28;20506;-72
2023/08/16 11:17:32;;;;;;;11.00;7.35;;;;;;;;;;5103038;28;20032;-72
2023/08/16 11:20:01;;;;;;;8.10;7.30;;;;;;;;;;5106858;28;20030;-72
2023/08/16 11:22:26;;;;;;;8.00;7.30;;;;;;;;;;5098024;28;20036;-72
2023/08/16 11:24:52;;;;;;;7.50;6.90;;;;;;;;;;5101308;28;20026;-73
2023/08/16 11:27:24;;;;;;;9.45;7.60;;;;;;;;;;5092140;28;20557;-73
2023/08/16 11:29:51;;;;;;;10.15;6.45;;;;;;;;;;5103880;28;20035;-72
2023/08/16 11:32:38;;;;;;;7.90;7.30;;;;;;;;;;5104201;28;20041;-73
2023/08/16 11:35:08;;;;;;;9.30;8.38;;;;;;;;;;5105034;28;20089;-73
2023/08/16 11:37:35;;;;;;;9.15;7.55;;;;;;;;;;5102267;28;20063;-73
2023/08/16 11:40:04;;;;;;;8.32;7.38;;;;;;;;;;5097749;28;20044;-72
2023/08/16 11:42:30;;;;;;;8.55;7.82;;;;;;;;;;5104665;28;20117;-72
2023/08/16 11:44:56;;;;;;;8.27;7.57;;;;;;;;;;5104907;28;20070;-72
2023/08/16 11:47:23;;;;;;;8.57;7.78;;;;;;;;;;5102112;28;20680;-73
2023/08/16 11:49:50;;;;;;;8.50;7.80;;;;;;;;;;5104144;28;20039;-72
2023/08/16 11:52:23;;;;;;;11.00;7.88;;;;;;;;;;5103784;28;20042;-73
2023/08/16 11:55:05;;;;;;;9.93;8.10;;;;;;;;;;5101448;28;20509;-72
2023/08/16 11:57:32;;;;;;;8.80;7.93;;;;;;;;;;5101179;28;20787;-72
2023/08/16 11:59:57;;;;;;;9.30;7.07;;;;;;;;;;5100826;28;20039;-72
2023/08/16 12:02:24;;;;;;;8.65;7.85;;;;;;;;;;5103977;28;20084;-73
2023/08/16 12:04:51;;;;;;;8.07;7.38;;;;;;;;;;5102485;28;20024;-72
2023/08/16 12:07:17;;;;;;;9.02;8.13;;;;;;;;;;5103985;28;20087;-73
2023/08/16 12:09:42;;;;;;;8.35;7.68;;;;;;;;;;5085296;28;20035;-72
2023/08/16 12:12:10;;;;;;;8.80;8.20;;;;;;;;;;5101465;28;20058;-72
2023/08/16 12:14:36;;;;;;;9.48;8.68;;;;;;;;;;5102365;28;20032;-72
2023/08/16 12:17:02;;;;;;;9.48;8.57;;;;;;;;;;5102813;28;20038;-72
2023/08/16 12:19:28;;;;;;;9.88;8.93;;;;;;;;;;5104739;28;20044;-72
2023/08/16 12:21:53;;;;;;;9.68;8.77;;;;;;;;;;5080400;28;21074;-72
2023/08/16 12:24:19;;;;;;;9.20;8.40;;;;;;;;;;5101645;28;20093;-72
2023/08/16 12:26:45;;;;;;;9.20;8.50;;;;;;;;;;5103902;28;20067;-72
2023/08/16 12:29:11;;;;;;;10.32;8.32;;;;;;;;;;5102415;28;20041;-72
2023/08/16 12:31:37;;;;;;;9.50;8.50;;;;;;;;;;5099233;28;20543;-72
2023/08/16 12:34:05;;;;;;;9.15;8.40;;;;;;;;;;5103569;28;20050;-73
2023/08/16 12:36:31;;;;;;;;;;;;;;;;;;5085960;28;20051;-72
2023/08/16 12:38:56;;;;;;;9.68;8.73;;;;;;;;;;5101094;28;19946;-72
2023/08/16 12:41:22;;;;;;;9.35;8.63;;;;;;;;;;5103153;28;20034;-72
2023/08/16 12:43:47;;;;;;;9.60;8.80;;;;;;;;;;5103571;28;20054;-72
2023/08/16 12:46:13;;;;;;;9.27;8.68;;;;;;;;;;5101909;28;20043;-72
2023/08/16 12:48:39;;;;;;;10.48;8.77;;;;;;;;;;5102580;28;20089;-72
2023/08/16 12:51:05;;;;;;;8.75;8.05;;;;;;;;;;5103064;28;20093;-72
2023/08/16 12:53:30;;;;;;;9.40;8.80;;;;;;;;;;5100356;28;20090;-72
2023/08/16 12:55:58;;;;;;;9.40;8.68;;;;;;;;;;5101533;28;20043;-72
2023/08/16 12:58:23;;;;;;;9.47;8.63;;;;;;;;;;5102180;28;20044;-72
2023/08/16 13:00:49;;;;;;;9.90;9.07;;;;;;;;;;5103432;28;20028;-72
2023/08/16 13:03:15;;;;;;;10.13;8.85;;;;;;;;;;5103477;28;20109;-72
2023/08/16 13:05:41;;;;;;;10.93;9.00;;;;;;;;;;5101525;28;20055;-73
2023/08/16 13:08:07;;;;;;;9.68;8.88;;;;;;;;;;5103887;28;20035;-72
2023/08/16 13:10:32;;;;;;;10.05;9.20;;;;;;;;;;5089708;28;20043;-72
2023/08/16 13:12:58;;;;;;;9.65;8.95;;;;;;;;;;5084405;28;20134;-72
2023/08/16 13:15:23;;;;;;;10.10;9.20;;;;;;;;;;5072342;28;20114;-72
2023/08/16 13:17:50;;;;;;;9.65;8.70;;;;;;;;;;5072478;28;20050;-72
2023/08/16 13:20:17;;;;;;;9.63;8.80;;;;;;;;;;5107329;28;20042;-72
2023/08/16 13:22:43;;;;;;;9.65;8.73;;;;;;;;;;5106193;28;20047;-72
2023/08/16 13:25:09;;;;;;;9.18;8.52;;;;;;;;;;5103042;28;20165;-72
2023/08/16 13:27:34;;;;;;;10.23;9.23;;;;;;;;;;5107181;28;20818;-72
2023/08/16 13:30:00;;;;;;;10.18;9.10;;;;;;;;;;5105647;28;20047;-72
2023/08/16 13:32:25;;;;;;;9.82;8.77;;;;;;;;;;5105145;28;20092;-72
2023/08/16 13:34:51;;;;;;;9.60;8.80;;;;;;;;;;5103004;28;20031;-73
2023/08/16 13:37:16;;;;;;;9.98;9.05;;;;;;;;;;5107334;28;20039;-72
2023/08/16 13:39:42;;;;;;;9.85;8.95;;;;;;;;;;5106729;28;20035;-72
2023/08/16 13:42:07;;;;;;;9.13;8.52;;;;;;;;;;5105802;28;20042;-72
2023/08/16 13:44:33;;;;;;;10.02;9.23;;;;;;;;;;5106368;28;20028;-72
2023/08/16 13:46:59;;;;;;;9.52;8.82;;;;;;;;;;5106677;28;20415;-72
2023/08/16 13:49:24;;;;;;;9.65;8.95;;;;;;;;;;5104969;28;20131;-72
2023/08/16 13:51:50;;;;;;;10.07;9.27;;;;;;;;;;5098316;28;20126;-72
2023/08/16 13:54:15;;;;;;;9.70;8.50;;;;;;;;;;5102309;28;20038;-72
2023/08/16 13:56:41;;;;;;;9.68;8.80;;;;;;;;;;5107063;28;20031;-72
2023/08/16 13:59:08;;;;;;;9.63;9.00;;;;;;;;;;5105723;28;20711;-72
2023/08/16 14:01:34;;;;;;;9.27;8.68;;;;;;;;;;5124962;28;20032;-72
2023/08/16 14:04:00;;;;;;;9.40;8.60;;;;;;;;;;5133084;28;20035;-72
2023/08/16 14:06:25;;;;;;;9.98;9.18;;;;;;;;;;5122161;28;20035;-72
2023/08/16 14:08:51;;;;;;;10.05;9.18;;;;;;;;;;5104163;28;20770;-72
2023/08/16 14:11:17;;;;;;;9.40;8.57;;;;;;;;;;5103300;28;20570;-71
2023/08/16 14:13:43;;;;;;;9.98;9.27;;;;;;;;;;5106775;28;20089;-72
2023/08/16 14:16:08;;;;;;;9.82;9.13;;;;;;;;;;5087953;28;20031;-72
2023/08/16 14:18:37;;;;;;;9.73;9.02;;;;;;;;;;5102692;28;20039;-72
2023/08/16 14:21:03;;;;;;;9.50;8.80;;;;;;;;;;5106248;28;20120;-72
2023/08/16 14:23:29;;;;;;;9.77;9.00;;;;;;;;;;5105780;28;20441;-72
2023/08/16 14:25:55;;;;;;;9.52;8.73;;;;;;;;;;5102830;28;20039;-72